Погода Итагуаина неделю

Рио-де-Жанейро, Бразилия

24 - 30 июля
  • 24июля
    Сегодня
    +16°
    +26°
    Практически безоблачно
    ВремяПогодаТемператураВлажностьДавлениеВетер, м/сВероятность осадков
    00:00Небольшая облачность+17°C96 %767 мм1.6 м/с5 %
    03:00Небольшая облачность+16°C92 %767 мм1.9 м/с5 %
    06:00Практически безоблачно+16°C94 %766 мм2.1 м/с5 %
    09:00Ясно и безоблачно+21°C73 %767 мм2.6 м/с5 %
    12:00Ясно и безоблачно+25°C45 %767 мм4.0 м/с5 %
    15:00Практически безоблачно+24°C47 %765 мм4.8 м/с5 %
    18:00Ясно и безоблачно+20°C82 %765 мм2.8 м/с5 %
    21:00Ясно и безоблачно+19°C86 %766 мм1.5 м/с5 %
  • 25июля
    Четверг
    +18°
    +27°
    Ясно и безоблачно
    ВремяПогодаТемператураВлажностьДавлениеВетер, м/сВероятность осадков
    00:00Ясно и безоблачно+18°C92 %766 мм1.8 м/с5 %
    03:00Небольшая облачность+16°C91 %764 мм2.0 м/с5 %
    06:00Ясно и безоблачно+16°C85 %764 мм2.3 м/с5 %
    09:00Ясно и безоблачно+22°C68 %765 мм3.2 м/с5 %
    12:00Ясно и безоблачно+26°C50 %764 мм4.4 м/с5 %
    15:00Ясно и безоблачно+27°C42 %761 мм4.2 м/с5 %
    18:00Ясно и безоблачно+22°C79 %762 мм2.3 м/с5 %
    21:00Ясно и безоблачно+20°C76 %762 мм1.6 м/с5 %
  • 26июля
    Пятница
    +17°
    +27°
    Ясно и безоблачно
    ВремяПогодаТемператураВлажностьДавлениеВетер, м/сВероятность осадков
    00:00Ясно и безоблачно+19°C81 %762 мм2.4 м/с5 %
    03:00Ясно и безоблачно+19°C77 %761 мм2.1 м/с5 %
    06:00Ясно и безоблачно+18°C83 %762 мм2.3 м/с5 %
    09:00Ясно и безоблачно+24°C58 %763 мм3.0 м/с5 %
    12:00Ясно и безоблачно+27°C41 %762 мм4.2 м/с5 %
    15:00Ясно и безоблачно+26°C45 %760 мм4.2 м/с5 %
    18:00Практически безоблачно+22°C72 %762 мм2.5 м/с5 %
    21:00Облачно с прояснениями+20°C83 %763 мм1.5 м/с5 %
  • 27июля
    Суббота
    +18°
    +28°
    Небольшая облачность
    ВремяПогодаТемператураВлажностьДавлениеВетер, м/сВероятность осадков
    00:00Облачно с прояснениями+20°C78 %763 мм1.6 м/с5 %
    03:00Облачно с прояснениями+19°C81 %762 мм1.8 м/с5 %
    06:00Облачно с прояснениями+18°C87 %762 мм2.1 м/с5 %
    09:00Облачно с прояснениями+24°C56 %763 мм2.9 м/с5 %
    12:00Облачно с прояснениями+27°C37 %763 мм4.2 м/с5 %
    15:00Небольшая облачность+25°C58 %762 мм4.5 м/с5 %
    18:00Ясно и безоблачно+22°C83 %763 мм2.6 м/с5 %
    21:00Ясно и безоблачно+20°C88 %764 мм1.7 м/с4 %
Мы используем cookies
Соглашаюсь